Time;durP1;ratioP1;P1;durP2;ratioP2;P2;SDS_P1;SDS_P2;PMS_P1;PMS_P2;Temp;Humidity;BMP_temperature;BMP_pressure;BME280_temperature;BME280_humidity;BME280_pressure;Samples;Min_cycle;Max_cycle;Signal;HPM_P1;HPM_P2
2023/09/17 00:00:09;;;;;;;15.05;7.50;;;15.30;99.90;;;;;;5027583;28;20045;-69
2023/09/17 00:02:35;;;;;;;14.35;7.32;;;15.40;99.90;;;;;;5027710;28;20041;-69
2023/09/17 00:05:03;;;;;;;11.75;7.15;;;15.40;99.90;;;;;;5027672;28;20037;-69
2023/09/17 00:07:29;;;;;;;12.20;7.35;;;15.40;99.90;;;;;;5025091;28;20056;-69
2023/09/17 00:09:54;;;;;;;13.50;7.45;;;15.40;99.90;;;;;;5023454;28;20045;-69
2023/09/17 00:12:20;;;;;;;11.90;6.50;;;15.40;99.90;;;;;;5024468;28;20438;-69
2023/09/17 00:14:45;;;;;;;14.13;6.65;;;15.40;99.90;;;;;;5025165;28;20517;-69
2023/09/17 00:17:11;;;;;;;11.90;6.80;;;15.40;99.90;;;;;;5020028;28;20045;-69
2023/09/17 00:19:37;;;;;;;14.45;7.43;;;15.40;99.90;;;;;;5023079;28;20441;-69
2023/09/17 00:22:03;;;;;;;15.00;7.75;;;15.40;99.90;;;;;;5023505;28;20405;-69
2023/09/17 00:24:28;;;;;;;13.23;6.75;;;15.50;99.90;;;;;;5025798;28;20076;-69
2023/09/17 00:26:54;;;;;;;14.27;7.65;;;15.50;99.90;;;;;;5022583;28;20076;-69
2023/09/17 00:29:23;;;;;;;10.55;6.35;;;15.50;99.90;;;;;;5043272;28;20034;-69
2023/09/17 00:31:48;;;;;;;13.00;6.90;;;15.40;99.90;;;;;;5024808;28;20702;-70
2023/09/17 00:34:14;;;;;;;11.98;6.82;;;15.40;99.90;;;;;;5026266;28;20375;-69
2023/09/17 00:36:39;;;;;;;15.27;7.63;;;15.40;99.90;;;;;;5004886;28;20150;-70
2023/09/17 00:39:05;;;;;;;14.38;7.85;;;15.40;99.90;;;;;;5021497;28;20176;-70
2023/09/17 00:41:30;;;;;;;13.43;7.32;;;15.40;99.90;;;;;;5024457;28;20043;-69
2023/09/17 00:43:56;;;;;;;12.52;7.13;;;15.40;99.90;;;;;;5023385;28;20045;-69
2023/09/17 00:46:21;;;;;;;14.75;7.65;;;15.40;99.90;;;;;;5005917;28;20065;-69
2023/09/17 00:48:47;;;;;;;14.45;7.88;;;15.40;99.90;;;;;;5021698;28;20033;-69
2023/09/17 00:51:13;;;;;;;13.98;7.97;;;15.40;99.90;;;;;;5022199;28;20037;-69
2023/09/17 00:53:40;;;;;;;13.77;7.60;;;15.40;99.90;;;;;;5021363;28;20040;-69
2023/09/17 00:56:06;;;;;;;15.98;8.02;;;15.40;99.90;;;;;;5023481;28;20091;-69
2023/09/17 00:58:33;;;;;;;14.02;7.82;;;15.40;99.90;;;;;;5025170;28;20055;-69
2023/09/17 01:00:59;;;;;;;16.17;8.07;;;15.40;99.90;;;;;;5027594;28;20033;-70
2023/09/17 01:03:26;;;;;;;19.92;8.82;;;15.30;99.90;;;;;;5011823;28;20045;-69
2023/09/17 01:05:53;;;;;;;14.10;8.25;;;15.30;99.90;;;;;;5041476;28;20065;-70
2023/09/17 01:08:20;;;;;;;15.60;7.95;;;15.30;99.90;;;;;;5003892;28;20501;-69
2023/09/17 01:10:48;;;;;;;13.65;8.30;;;15.40;99.90;;;;;;5024696;28;20116;-69
2023/09/17 01:13:14;;;;;;;14.20;8.43;;;15.30;99.90;;;;;;5024393;28;20045;-70
2023/09/17 01:15:40;;;;;;;17.38;9.80;;;15.40;99.90;;;;;;5023270;28;20037;-69
2023/09/17 01:18:09;;;;;;;16.13;8.20;;;15.40;99.90;;;;;;5020607;28;20076;-69
2023/09/17 01:20:46;;;;;;;15.13;8.73;;;15.30;99.90;;;;;;5039382;28;20041;-69
2023/09/17 01:23:23;;;;;;;17.83;9.45;;;15.30;99.90;;;;;;5023442;28;20099;-69
2023/09/17 01:26:01;;;;;;;14.93;8.98;;;15.30;99.90;;;;;;5036853;28;20099;-69
2023/09/17 01:28:28;;;;;;;16.35;8.65;;;15.30;99.90;;;;;;5023692;28;20577;-69
2023/09/17 01:30:54;;;;;;;14.82;8.95;;;15.30;99.90;;;;;;5023844;28;20084;-69
2023/09/17 01:33:19;;;;;;;15.38;8.82;;;15.30;99.90;;;;;;5023207;28;20069;-70
2023/09/17 01:35:57;;;;;;;13.88;7.78;;;15.30;99.90;;;;;;5036441;28;20037;-69
2023/09/17 01:38:31;;;;;;;16.30;8.25;;;15.30;99.90;;;;;;5024648;28;20418;-70
2023/09/17 01:41:00;;;;;;;16.73;9.00;;;15.30;99.90;;;;;;5021749;28;20044;-69
2023/09/17 01:43:25;;;;;;;17.65;8.82;;;15.30;99.90;;;;;;5022369;28;20041;-70
2023/09/17 01:45:52;;;;;;;16.58;8.57;;;15.30;99.90;;;;;;5019519;28;20038;-69
2023/09/17 01:48:18;;;;;;;17.23;9.18;;;15.20;99.90;;;;;;5022629;28;20127;-70
2023/09/17 01:50:45;;;;;;;17.70;8.70;;;15.30;99.90;;;;;;5023701;28;20033;-69
2023/09/17 01:53:13;;;;;;;17.10;9.38;;;15.30;99.90;;;;;;5024162;28;20072;-70
2023/09/17 01:55:41;;;;;;;18.15;9.35;;;15.20;99.90;;;;;;5020821;28;20628;-69
2023/09/17 01:58:10;;;;;;;16.42;8.75;;;15.20;99.90;;;;;;5021528;28;20038;-69
2023/09/17 02:00:36;;;;;;;15.73;8.80;;;15.20;99.90;;;;;;5021666;28;20037;-69
2023/09/17 02:03:03;;;;;;;14.30;7.93;;;15.20;99.90;;;;;;5023079;28;20418;-70
2023/09/17 02:05:28;;;;;;;16.00;8.85;;;15.20;99.90;;;;;;5021158;28;20483;-69
2023/09/17 02:07:54;;;;;;;19.13;9.43;;;15.20;99.90;;;;;;5026918;28;20065;-69
2023/09/17 02:10:20;;;;;;;17.80;10.00;;;15.20;99.90;;;;;;5026981;28;20412;-69
2023/09/17 02:12:46;;;;;;;17.75;9.63;;;15.20;99.90;;;;;;5039227;28;20049;-69
2023/09/17 02:15:12;;;;;;;18.63;9.50;;;15.20;99.90;;;;;;5024661;28;20455;-70
2023/09/17 02:17:38;;;;;;;18.40;10.02;;;15.20;99.90;;;;;;5020565;28;20049;-69
2023/09/17 02:20:10;;;;;;;17.35;8.95;;;15.20;99.90;;;;;;5024862;28;20075;-69
2023/09/17 02:22:37;;;;;;;18.52;8.73;;;15.20;99.90;;;;;;5027491;28;20037;-70
2023/09/17 02:25:03;;;;;;;18.70;9.60;;;15.20;99.90;;;;;;5026307;28;20491;-69
2023/09/17 02:27:29;;;;;;;18.20;9.27;;;15.30;99.90;;;;;;5010655;28;20056;-70
2023/09/17 02:29:54;;;;;;;16.83;8.13;;;15.20;99.90;;;;;;5025162;28;20045;-70
2023/09/17 02:32:20;;;;;;;20.65;10.07;;;15.20;99.90;;;;;;5026830;28;20034;-69
2023/09/17 02:34:45;;;;;;;16.75;9.82;;;15.20;99.90;;;;;;5011347;28;20038;-70
2023/09/17 02:37:11;;;;;;;16.75;9.45;;;15.20;99.90;;;;;;5024037;28;20034;-69
2023/09/17 02:39:36;;;;;;;21.38;10.60;;;15.20;99.90;;;;;;5024417;28;20694;-70
2023/09/17 02:42:03;;;;;;;19.42;10.25;;;15.20;99.90;;;;;;5025242;28;20387;-70
2023/09/17 02:44:28;;;;;;;16.67;9.88;;;15.20;99.90;;;;;;5027066;28;20529;-69
2023/09/17 02:46:54;;;;;;;20.00;10.18;;;15.30;99.90;;;;;;5026890;28;20041;-69
2023/09/17 02:49:22;;;;;;;20.90;9.45;;;15.30;99.90;;;;;;5022830;28;20042;-69
2023/09/17 02:51:51;;;;;;;20.35;10.48;;;15.30;99.90;;;;;;5025940;28;20491;-69
2023/09/17 02:54:17;;;;;;;17.70;10.07;;;15.20;99.90;;;;;;5025277;28;20041;-70
2023/09/17 02:56:42;;;;;;;23.05;10.40;;;15.30;99.90;;;;;;5008559;28;20030;-69
2023/09/17 02:59:08;;;;;;;21.88;10.32;;;15.20;99.90;;;;;;5008248;28;20120;-69
2023/09/17 03:01:35;;;;;;;22.35;10.60;;;15.30;99.90;;;;;;5027057;28;20037;-69
2023/09/17 03:04:04;;;;;;;20.55;10.65;;;15.30;99.90;;;;;;5026126;28;20076;-69
2023/09/17 03:06:30;;;;;;;22.45;10.40;;;15.30;99.90;;;;;;5022530;28;20041;-69
2023/09/17 03:08:56;;;;;;;21.83;10.18;;;15.30;99.90;;;;;;5025744;28;20432;-69
2023/09/17 03:11:23;;;;;;;20.98;10.10;;;15.30;99.90;;;;;;5026727;28;20116;-69
2023/09/17 03:13:49;;;;;;;19.75;10.80;;;15.30;99.90;;;;;;5026307;28;20475;-69
2023/09/17 03:16:15;;;;;;;21.10;10.82;;;15.30;99.90;;;;;;5036793;28;20037;-69
2023/09/17 03:18:44;;;;;;;20.73;10.40;;;15.30;99.90;;;;;;5026909;28;20103;-69
2023/09/17 03:21:11;;;;;;;19.80;10.82;;;15.30;99.90;;;;;;5023930;28;20467;-69
2023/09/17 03:23:37;;;;;;;21.17;10.65;;;15.30;99.90;;;;;;5041251;28;20136;-69
2023/09/17 03:26:03;;;;;;;18.15;9.43;;;15.30;99.90;;;;;;5024216;28;20076;-69
2023/09/17 03:28:32;;;;;;;20.02;10.52;;;15.30;99.90;;;;;;5029818;28;20041;-69
2023/09/17 03:30:59;;;;;;;18.33;10.15;;;15.40;99.90;;;;;;5023454;28;20043;-69
2023/09/17 03:33:25;;;;;;;21.98;11.10;;;15.40;99.90;;;;;;5024662;28;20033;-69
2023/09/17 03:35:51;;;;;;;21.08;10.00;;;15.40;99.90;;;;;;5021680;28;20525;-69
2023/09/17 03:38:17;;;;;;;18.85;10.60;;;15.40;99.90;;;;;;5024653;28;20087;-69
2023/09/17 03:40:43;;;;;;;21.73;10.52;;;15.40;99.90;;;;;;5025685;28;20423;-70
2023/09/17 03:43:09;;;;;;;23.23;11.18;;;15.40;99.90;;;;;;5024980;28;20494;-69
2023/09/17 03:45:35;;;;;;;18.58;10.27;;;15.40;99.90;;;;;;5021341;28;20073;-69
2023/09/17 03:48:00;;;;;;;21.40;10.73;;;15.40;99.90;;;;;;5024547;28;20038;-70
2023/09/17 03:50:27;;;;;;;20.02;10.23;;;15.40;99.90;;;;;;5025076;28;20116;-69
2023/09/17 03:52:57;;;;;;;21.15;9.70;;;15.40;99.90;;;;;;5041774;28;20041;-69
2023/09/17 03:55:26;;;;;;;21.15;9.80;;;15.40;99.90;;;;;;5006915;28;20041;-70
2023/09/17 03:57:52;;;;;;;19.42;9.90;;;15.40;99.90;;;;;;5024217;28;20091;-69
2023/09/17 04:00:18;;;;;;;23.30;10.70;;;15.50;99.90;;;;;;5024025;28;20037;-70
2023/09/17 04:02:44;;;;;;;20.15;10.27;;;15.40;99.90;;;;;;5026366;28;20033;-69
2023/09/17 04:05:12;;;;;;;24.05;11.32;;;15.50;99.90;;;;;;5023910;28;20540;-70
2023/09/17 04:07:40;;;;;;;24.58;10.90;;;15.50;99.90;;;;;;5027505;28;20041;-69
2023/09/17 04:10:06;;;;;;;18.85;10.23;;;15.60;99.90;;;;;;5025097;28;20044;-70
2023/09/17 04:12:32;;;;;;;22.70;11.15;;;15.60;99.90;;;;;;5024367;28;20045;-69
2023/09/17 04:14:58;;;;;;;25.10;12.00;;;15.60;99.90;;;;;;5022119;28;20045;-69
2023/09/17 04:17:24;;;;;;;24.48;10.63;;;15.60;99.90;;;;;;5026831;28;20033;-70
2023/09/17 04:19:50;;;;;;;21.75;11.23;;;15.60;99.90;;;;;;5024384;28;20033;-70
2023/09/17 04:22:16;;;;;;;23.65;11.10;;;15.60;99.90;;;;;;5039625;28;20479;-70
2023/09/17 04:24:42;;;;;;;22.90;11.27;;;15.70;99.90;;;;;;5025034;28;20102;-69
2023/09/17 04:27:08;;;;;;;25.55;11.43;;;15.60;99.90;;;;;;5022617;28;20047;-70
2023/09/17 04:29:35;;;;;;;23.75;11.75;;;15.70;99.90;;;;;;5040678;28;20037;-69
2023/09/17 04:32:01;;;;;;;20.70;11.45;;;15.70;99.90;;;;;;5023970;28;20033;-69
2023/09/17 04:34:26;;;;;;;22.70;11.38;;;15.70;99.90;;;;;;5024340;28;20046;-69
2023/09/17 04:36:52;;;;;;;23.23;12.40;;;15.70;99.90;;;;;;5024714;28;20045;-69
2023/09/17 04:39:17;;;;;;;25.88;12.13;;;15.70;99.90;;;;;;5025686;28;20107;-69
2023/09/17 04:41:44;;;;;;;20.98;10.48;;;15.70;99.90;;;;;;5023696;28;20522;-70
2023/09/17 04:44:10;;;;;;;25.30;11.80;;;15.60;99.90;;;;;;5004642;28;20503;-70
2023/09/17 04:46:45;;;;;;;24.30;11.25;;;15.70;99.90;;;;;;5006293;28;20059;-69
2023/09/17 04:49:11;;;;;;;26.00;12.57;;;15.70;99.90;;;;;;5024583;28;20520;-70
2023/09/17 04:51:37;;;;;;;25.05;11.57;;;15.70;99.90;;;;;;5024126;28;20076;-70
2023/09/17 04:54:03;;;;;;;24.55;12.18;;;15.70;99.90;;;;;;5023347;28;20034;-70
2023/09/17 04:56:29;;;;;;;24.92;12.50;;;15.70;99.90;;;;;;5020712;28;20617;-69
2023/09/17 04:58:56;;;;;;;24.30;11.85;;;15.70;99.90;;;;;;5018201;28;20041;-70
2023/09/17 05:01:22;;;;;;;24.83;11.73;;;15.70;99.90;;;;;;5024066;28;20426;-70
2023/09/17 05:03:47;;;;;;;20.58;11.00;;;15.80;99.90;;;;;;5022713;28;20111;-70
2023/09/17 05:06:13;;;;;;;21.58;12.13;;;15.70;99.90;;;;;;5035025;28;20045;-70
2023/09/17 05:08:38;;;;;;;21.48;11.55;;;15.70;99.90;;;;;;5021239;28;20044;-70
2023/09/17 05:11:05;;;;;;;23.10;11.55;;;15.70;99.90;;;;;;5019518;28;20041;-70
2023/09/17 05:13:31;;;;;;;24.05;12.02;;;15.70;99.90;;;;;;5020222;28;20053;-70
2023/09/17 05:15:57;;;;;;;25.50;11.85;;;15.80;99.90;;;;;;5037141;28;20145;-70
2023/09/17 05:18:23;;;;;;;23.98;11.82;;;15.80;99.90;;;;;;5024477;28;20108;-70
2023/09/17 05:20:49;;;;;;;26.00;11.75;;;15.70;99.90;;;;;;5021364;28;20501;-70
2023/09/17 05:23:16;;;;;;;23.40;12.05;;;15.80;99.90;;;;;;5008139;28;20645;-70
2023/09/17 05:25:41;;;;;;;24.42;12.15;;;15.80;99.90;;;;;;5021646;28;20609;-70
2023/09/17 05:28:07;;;;;;;24.42;12.60;;;15.80;99.90;;;;;;5021285;28;20120;-70
2023/09/17 05:30:36;;;;;;;25.55;11.65;;;15.70;99.90;;;;;;5021093;28;20037;-70
2023/09/17 05:33:04;;;;;;;19.98;10.93;;;15.70;99.90;;;;;;5024360;28;20610;-70
2023/09/17 05:35:34;;;;;;;22.90;11.75;;;15.80;99.90;;;;;;5023023;28;20071;-70
2023/09/17 05:38:00;;;;;;;23.23;12.18;;;15.80;99.90;;;;;;5017290;28;20452;-70
2023/09/17 05:40:25;;;;;;;26.48;12.38;;;15.80;99.90;;;;;;5005984;28;20037;-70
2023/09/17 05:42:51;;;;;;;25.95;12.77;;;15.80;99.90;;;;;;5024025;28;20060;-70
2023/09/17 05:45:17;;;;;;;21.15;11.00;;;15.80;99.90;;;;;;5024518;28;20069;-70
2023/09/17 05:47:43;;;;;;;21.02;11.77;;;15.80;99.90;;;;;;5017603;28;20395;-70
2023/09/17 05:50:10;;;;;;;21.77;11.77;;;15.80;99.90;;;;;;5021339;28;20084;-69
2023/09/17 05:52:35;;;;;;;23.63;12.27;;;15.80;99.90;;;;;;5026784;28;20095;-70
2023/09/17 05:55:04;;;;;;;22.70;11.95;;;15.80;99.90;;;;;;5027888;28;20041;-70
2023/09/17 05:57:30;;;;;;;26.27;13.48;;;15.80;99.90;;;;;;5026692;28;20057;-69
2023/09/17 05:59:56;;;;;;;21.55;11.60;;;15.80;99.90;;;;;;5023514;28;20048;-70
2023/09/17 06:02:21;;;;;;;22.70;12.32;;;15.80;99.90;;;;;;5026889;28;20666;-70
2023/09/17 06:04:51;;;;;;;21.98;11.80;;;15.80;99.90;;;;;;5044925;28;20096;-69
2023/09/17 06:07:16;;;;;;;24.70;12.15;;;15.80;99.90;;;;;;5030354;28;20116;-70
2023/09/17 06:09:42;;;;;;;26.75;13.57;;;15.80;99.90;;;;;;5032319;28;20124;-70
2023/09/17 06:12:07;;;;;;;20.00;10.98;;;15.80;99.90;;;;;;5026568;28;20092;-69
2023/09/17 06:14:33;;;;;;;22.55;12.32;;;15.90;99.90;;;;;;5027541;28;20056;-70
2023/09/17 06:16:59;;;;;;;20.30;11.35;;;15.90;99.90;;;;;;5026118;28;20045;-70
2023/09/17 06:19:26;;;;;;;24.95;12.07;;;15.90;99.90;;;;;;5029811;28;20045;-69
2023/09/17 06:21:53;;;;;;;24.70;12.45;;;15.90;99.90;;;;;;5026681;28;20107;-69
2023/09/17 06:24:18;;;;;;;22.45;12.50;;;15.90;99.90;;;;;;5002770;28;20045;-69
2023/09/17 06:26:44;;;;;;;22.00;11.25;;;15.90;99.90;;;;;;5030581;28;20048;-70
2023/09/17 06:29:09;;;;;;;23.77;12.15;;;16.00;99.90;;;;;;5020061;28;20042;-70
2023/09/17 06:31:35;;;;;;;21.52;12.23;;;16.00;99.90;;;;;;5025749;28;20045;-70
2023/09/17 06:34:00;;;;;;;24.98;12.85;;;16.00;99.90;;;;;;5012571;28;20083;-70
2023/09/17 06:36:27;;;;;;;24.92;12.95;;;16.00;99.90;;;;;;5027425;28;20041;-70
2023/09/17 06:38:53;;;;;;;22.52;11.48;;;16.00;99.90;;;;;;5026434;28;20042;-70
2023/09/17 06:41:19;;;;;;;28.13;12.48;;;16.00;99.90;;;;;;5010747;28;20037;-69
2023/09/17 06:43:46;;;;;;;25.15;12.40;;;16.10;99.90;;;;;;5012214;28;20069;-70
2023/09/17 06:46:11;;;;;;;26.45;12.93;;;16.10;99.90;;;;;;5045893;28;20037;-70
2023/09/17 06:48:37;;;;;;;24.52;13.10;;;16.10;99.90;;;;;;5026518;28;20052;-70
2023/09/17 06:51:03;;;;;;;23.75;12.73;;;16.10;99.90;;;;;;5006076;28;20048;-69
2023/09/17 06:53:28;;;;;;;23.77;12.00;;;16.10;99.90;;;;;;5041192;28;20030;-69
2023/09/17 06:55:54;;;;;;;24.77;13.80;;;16.10;99.90;;;;;;5027306;28;20037;-70
2023/09/17 06:58:19;;;;;;;25.00;12.68;;;16.10;99.90;;;;;;5027881;28;20033;-69
2023/09/17 07:00:47;;;;;;;25.67;13.30;;;16.20;99.90;;;;;;5025223;28;20046;-70
2023/09/17 07:03:13;;;;;;;26.27;13.93;;;16.20;99.90;;;;;;5027551;28;20449;-70
2023/09/17 07:05:39;;;;;;;25.85;12.48;;;16.30;99.90;;;;;;5018681;28;20156;-70
2023/09/17 07:08:05;;;;;;;25.27;12.50;;;16.30;99.90;;;;;;5022218;28;20467;-70
2023/09/17 07:10:32;;;;;;;23.27;12.40;;;16.30;99.90;;;;;;5028272;28;20048;-69
2023/09/17 07:12:57;;;;;;;27.05;13.27;;;16.30;99.90;;;;;;5025840;28;20593;-69
2023/09/17 07:15:25;;;;;;;25.08;12.00;;;16.30;99.90;;;;;;5022553;28;20079;-70
2023/09/17 07:17:51;;;;;;;24.42;12.02;;;16.30;99.90;;;;;;5020667;28;20217;-69
2023/09/17 07:20:19;;;;;;;26.50;11.52;;;16.30;99.90;;;;;;5025966;28;20456;-69
2023/09/17 07:22:49;;;;;;;26.65;12.38;;;16.30;99.90;;;;;;5011204;28;20117;-69
2023/09/17 07:25:14;;;;;;;24.50;11.82;;;16.40;99.90;;;;;;5011112;28;20068;-69
2023/09/17 07:27:40;;;;;;;22.33;11.50;;;16.40;99.90;;;;;;5026099;28;20137;-69
2023/09/17 07:30:06;;;;;;;26.55;13.05;;;16.40;99.90;;;;;;5027441;28;20478;-70
2023/09/17 07:32:32;;;;;;;23.92;12.02;;;16.40;99.90;;;;;;5028795;28;20095;-69
2023/09/17 07:35:01;;;;;;;25.77;11.82;;;16.40;99.90;;;;;;5023858;28;20041;-69
2023/09/17 07:37:26;;;;;;;24.52;12.48;;;16.40;99.90;;;;;;5028531;28;20038;-70
2023/09/17 07:39:56;;;;;;;23.10;10.98;;;16.40;99.90;;;;;;5028094;28;20483;-69
2023/09/17 07:42:22;;;;;;;25.13;12.38;;;16.40;99.90;;;;;;5028937;28;20029;-70
2023/09/17 07:44:48;;;;;;;23.15;11.85;;;16.40;99.90;;;;;;5026255;28;20127;-69
2023/09/17 07:47:13;;;;;;;22.70;11.77;;;16.40;99.90;;;;;;5027105;28;20190;-69
2023/09/17 07:49:39;;;;;;;22.55;12.27;;;16.40;99.90;;;;;;5023108;28;20041;-70
2023/09/17 07:52:05;;;;;;;21.92;11.52;;;16.40;99.90;;;;;;5043248;28;20052;-69
2023/09/17 07:54:36;;;;;;;25.55;13.02;;;16.40;99.90;;;;;;5024942;28;20049;-69
2023/09/17 07:57:04;;;;;;;24.38;13.00;;;16.40;99.90;;;;;;5024208;28;20053;-69
2023/09/17 07:59:29;;;;;;;26.98;12.07;;;16.40;99.90;;;;;;5040769;28;20045;-69
2023/09/17 08:01:56;;;;;;;22.67;12.32;;;16.50;99.90;;;;;;5025564;28;20034;-69
2023/09/17 08:04:21;;;;;;;25.05;11.77;;;16.50;99.90;;;;;;5023024;28;20064;-69
2023/09/17 08:06:48;;;;;;;25.40;11.85;;;16.50;99.90;;;;;;5020725;28;20077;-69
2023/09/17 08:09:14;;;;;;;22.33;11.52;;;16.50;99.90;;;;;;5026130;28;20042;-69
2023/09/17 08:11:40;;;;;;;23.73;11.85;;;16.50;99.90;;;;;;5011600;28;20465;-69
2023/09/17 08:14:05;;;;;;;27.38;12.45;;;16.50;99.90;;;;;;5025906;28;20037;-70
2023/09/17 08:16:31;;;;;;;22.33;12.00;;;16.60;99.90;;;;;;5025288;28;20486;-70
2023/09/17 08:18:57;;;;;;;22.50;11.80;;;16.60;99.90;;;;;;5026471;28;20372;-69
2023/09/17 08:21:23;;;;;;;22.92;11.93;;;16.60;99.90;;;;;;5008539;28;20037;-69
2023/09/17 08:23:49;;;;;;;21.20;11.43;;;16.60;99.90;;;;;;5020265;28;20234;-69
2023/09/17 08:26:15;;;;;;;20.50;10.60;;;16.60;99.90;;;;;;5007735;28;20186;-69
2023/09/17 08:28:43;;;;;;;18.23;10.18;;;16.70;99.90;;;;;;5024827;28;20045;-70
2023/09/17 08:31:09;;;;;;;20.73;11.35;;;16.60;99.90;;;;;;5007693;28;20045;-70
2023/09/17 08:33:35;;;;;;;16.95;9.90;;;16.70;99.90;;;;;;5007381;28;20037;-70
2023/09/17 08:36:02;;;;;;;20.00;11.40;;;16.70;99.90;;;;;;5022951;28;20478;-70
2023/09/17 08:38:29;;;;;;;18.90;10.13;;;16.70;99.90;;;;;;5022991;28;20049;-70
2023/09/17 08:40:57;;;;;;;19.80;10.68;;;16.80;99.90;;;;;;5023988;28;20116;-70
2023/09/17 08:43:23;;;;;;;17.10;10.13;;;16.80;99.90;;;;;;5023430;28;20039;-70
2023/09/17 08:45:50;;;;;;;20.17;10.50;;;16.80;99.90;;;;;;5006928;28;20073;-70
2023/09/17 08:48:17;;;;;;;18.67;10.38;;;16.80;99.90;;;;;;5022790;28;20064;-70
2023/09/17 08:50:48;;;;;;;21.55;10.38;;;16.80;99.90;;;;;;5021035;28;20088;-70
2023/09/17 08:53:19;;;;;;;19.17;10.48;;;16.80;99.90;;;;;;5019366;28;20037;-70
2023/09/17 08:55:49;;;;;;;18.27;10.43;;;16.80;99.90;;;;;;5022446;28;20044;-70
2023/09/17 08:58:24;;;;;;;17.30;10.45;;;16.80;99.90;;;;;;5024836;28;20030;-70
2023/09/17 09:00:51;;;;;;;20.10;11.02;;;16.90;99.90;;;;;;5023570;28;20029;-70
2023/09/17 09:03:22;;;;;;;19.67;10.00;;;16.90;99.90;;;;;;5005234;28;20030;-70
2023/09/17 09:05:49;;;;;;;19.98;10.82;;;16.90;99.90;;;;;;5020379;28;20095;-70
2023/09/17 09:08:17;;;;;;;20.27;11.02;;;16.90;99.90;;;;;;5026829;28;20044;-70
2023/09/17 09:10:42;;;;;;;19.67;10.40;;;17.00;99.90;;;;;;5041419;28;20447;-70
2023/09/17 09:13:09;;;;;;;20.77;10.82;;;17.00;99.90;;;;;;5024723;28;20037;-70
2023/09/17 09:15:36;;;;;;;20.85;10.88;;;17.00;99.90;;;;;;5024685;28;20084;-70
2023/09/17 09:18:02;;;;;;;18.65;10.13;;;17.10;99.90;;;;;;5039648;28;20398;-70
2023/09/17 09:20:28;;;;;;;19.80;10.40;;;17.10;99.90;;;;;;5024006;28;20160;-70
2023/09/17 09:22:54;;;;;;;17.52;8.98;;;17.20;99.90;;;;;;5008190;28;20128;-69
2023/09/17 09:25:19;;;;;;;18.13;9.90;;;17.30;99.90;;;;;;5025603;28;20041;-70
2023/09/17 09:27:45;;;;;;;21.00;10.13;;;17.30;99.90;;;;;;5005592;28;20073;-69
2023/09/17 09:30:14;;;;;;;16.05;9.50;;;17.30;99.90;;;;;;5034040;28;20290;-70
2023/09/17 09:32:42;;;;;;;16.52;9.35;;;17.40;99.90;;;;;;5024387;28;20059;-70
2023/09/17 09:35:08;;;;;;;17.98;9.73;;;17.40;99.90;;;;;;5023654;28;20044;-70
2023/09/17 09:37:35;;;;;;;17.90;9.35;;;17.30;99.90;;;;;;5006901;28;20048;-70
2023/09/17 09:40:01;;;;;;;15.75;8.75;;;17.40;99.90;;;;;;5010396;28;20041;-70
2023/09/17 09:42:27;;;;;;;17.17;9.30;;;17.40;99.90;;;;;;5014536;28;20046;-70
2023/09/17 09:44:54;;;;;;;19.48;8.85;;;17.40;99.90;;;;;;5024535;28;20125;-70
2023/09/17 09:47:21;;;;;;;15.55;9.23;;;17.40;99.90;;;;;;5007288;28;20079;-70
2023/09/17 09:49:47;;;;;;;18.30;8.90;;;17.50;99.90;;;;;;5018514;28;20518;-70
2023/09/17 09:52:16;;;;;;;16.27;8.57;;;17.50;99.90;;;;;;5032076;28;20080;-70
2023/09/17 09:54:43;;;;;;;16.33;9.23;;;17.60;99.90;;;;;;5037080;28;20072;-69
2023/09/17 09:57:14;;;;;;;20.02;9.65;;;17.60;99.90;;;;;;5035061;28;20041;-70
2023/09/17 09:59:44;;;;;;;16.77;9.73;;;17.60;99.90;;;;;;5017362;28;20041;-70
2023/09/17 10:02:12;;;;;;;16.13;9.25;;;17.60;99.90;;;;;;5002010;28;20038;-70
2023/09/17 10:04:38;;;;;;;16.00;9.13;;;17.60;99.90;;;;;;4999994;28;20422;-70
2023/09/17 10:07:04;;;;;;;18.35;9.52;;;17.60;99.90;;;;;;5001303;28;20484;-70
2023/09/17 10:09:30;;;;;;;17.30;9.00;;;17.60;99.90;;;;;;5016813;28;20045;-70
2023/09/17 10:11:58;;;;;;;19.08;9.43;;;17.70;99.90;;;;;;5020264;28;20091;-70
2023/09/17 10:14:26;;;;;;;14.20;8.63;;;17.70;99.90;;;;;;5014457;28;20049;-70
2023/09/17 10:16:52;;;;;;;20.33;10.20;;;17.70;99.90;;;;;;5016390;28;20049;-70
2023/09/17 10:19:21;;;;;;;17.42;8.98;;;17.70;99.90;;;;;;5020694;28;20033;-70
2023/09/17 10:21:48;;;;;;;19.23;9.25;;;17.70;99.90;;;;;;5016386;28;20041;-71
2023/09/17 10:24:16;;;;;;;18.30;8.98;;;17.80;99.90;;;;;;5016940;28;20076;-70
2023/09/17 10:26:43;;;;;;;18.70;8.98;;;17.70;99.90;;;;;;5003162;28;20464;-71
2023/09/17 10:29:10;;;;;;;19.58;9.45;;;17.70;99.90;;;;;;5028056;28;20053;-70
2023/09/17 10:31:41;;;;;;;18.30;8.88;;;17.70;99.90;;;;;;5000597;28;20049;-70
2023/09/17 10:34:08;;;;;;;19.17;10.40;;;17.70;99.90;;;;;;5016325;28;20049;-70
2023/09/17 10:36:37;;;;;;;18.85;9.93;;;17.60;99.90;;;;;;5034156;28;20124;-70
2023/09/17 10:39:06;;;;;;;18.08;9.48;;;17.70;99.90;;;;;;5023118;28;20068;-70
2023/09/17 10:41:36;;;;;;;19.63;10.13;;;17.80;99.90;;;;;;5024639;28;20038;-70
2023/09/17 10:44:03;;;;;;;17.17;9.52;;;17.90;99.90;;;;;;5023022;28;20457;-70
2023/09/17 10:46:31;;;;;;;17.77;9.82;;;18.00;99.90;;;;;;5024208;28;20053;-70
2023/09/17 10:48:58;;;;;;;19.60;10.23;;;18.10;99.90;;;;;;5024061;28;20368;-70
2023/09/17 10:51:26;;;;;;;19.27;9.93;;;18.10;99.90;;;;;;5024011;28;20041;-70
2023/09/17 10:53:53;;;;;;;17.08;9.23;;;18.20;99.90;;;;;;5025527;28;20437;-70
2023/09/17 10:56:20;;;;;;;16.05;9.00;;;18.20;99.90;;;;;;5024432;28;20485;-70
2023/09/17 10:58:49;;;;;;;16.65;8.90;;;18.20;99.90;;;;;;5002544;28;20120;-70
2023/09/17 11:01:17;;;;;;;16.23;8.52;;;18.30;99.90;;;;;;5007854;28;20687;-70
2023/09/17 11:03:47;;;;;;;19.83;9.25;;;18.30;99.90;;;;;;5023641;28;20045;-70
2023/09/17 11:06:17;;;;;;;14.88;8.73;;;18.30;99.90;;;;;;5024408;28;20112;-70
2023/09/17 11:08:47;;;;;;;16.80;8.77;;;18.30;99.90;;;;;;5023675;28;20096;-70
2023/09/17 11:11:14;;;;;;;14.27;7.72;;;18.20;99.90;;;;;;5018017;28;20037;-70
2023/09/17 11:13:43;;;;;;;14.40;8.60;;;18.20;99.90;;;;;;5017291;28;20421;-70
2023/09/17 11:16:08;;;;;;;18.70;7.63;;;18.20;99.90;;;;;;4999079;28;20276;-69
2023/09/17 11:18:34;;;;;;;11.77;7.38;;;18.20;99.90;;;;;;5018069;28;20040;-69
2023/09/17 11:21:10;;;;;;;14.63;8.23;;;18.10;99.90;;;;;;5014908;28;20430;-69
2023/09/17 11:23:44;;;;;;;14.98;8.68;;;18.10;99.90;;;;;;5017854;28;20056;-69
2023/09/17 11:26:28;;;;;;;14.00;8.77;;;18.10;99.90;;;;;;5017847;28;20068;-69
2023/09/17 11:28:55;;;;;;;19.05;7.72;;;18.20;99.90;;;;;;5015154;28;20441;-70
2023/09/17 11:31:22;;;;;;;16.23;8.50;;;18.20;99.90;;;;;;5017416;28;20085;-69
2023/09/17 11:33:48;;;;;;;15.75;8.30;;;18.30;99.90;;;;;;5024734;28;20037;-69
2023/09/17 11:36:14;;;;;;;13.85;8.00;;;18.40;99.90;;;;;;5019306;28;20508;-69
2023/09/17 11:38:46;;;;;;;15.45;8.35;;;18.40;99.90;;;;;;5017582;28;20037;-69
2023/09/17 11:41:14;;;;;;;14.93;8.15;;;18.50;99.90;;;;;;5020934;28;20029;-69
2023/09/17 11:43:47;;;;;;;15.50;8.38;;;18.50;99.90;;;;;;5020752;28;20572;-69
2023/09/17 11:46:14;;;;;;;15.90;9.25;;;18.50;99.90;;;;;;5020338;28;20128;-69
2023/09/17 11:48:43;;;;;;;13.80;7.78;;;18.60;99.90;;;;;;5016297;28;20703;-69
2023/09/17 11:51:23;;;;;;;19.25;8.80;;;18.60;99.90;;;;;;5018166;28;20041;-69
2023/09/17 11:53:59;;;;;;;18.02;9.23;;;18.60;99.90;;;;;;5017949;28;20052;-69
2023/09/17 11:56:28;;;;;;;16.58;8.80;;;18.60;99.90;;;;;;5020399;28;20057;-69
2023/09/17 11:59:01;;;;;;;16.50;8.23;;;18.60;99.90;;;;;;5024843;28;20491;-69
2023/09/17 12:01:30;;;;;;;17.15;8.63;;;18.70;99.90;;;;;;5018259;28;20375;-69
2023/09/17 12:03:57;;;;;;;17.30;8.95;;;18.70;99.90;;;;;;5009773;28;20453;-69
2023/09/17 12:06:25;;;;;;;18.42;9.57;;;18.80;99.90;;;;;;4999429;28;20091;-70
2023/09/17 12:08:51;;;;;;;18.27;10.27;;;18.80;99.90;;;;;;5016478;28;20045;-69
2023/09/17 12:11:23;;;;;;;18.98;10.68;;;18.90;99.90;;;;;;5003045;28;20049;-70
2023/09/17 12:13:53;;;;;;;16.73;9.13;;;18.90;99.90;;;;;;5021724;28;20041;-70
2023/09/17 12:16:23;;;;;;;20.83;9.95;;;19.00;99.90;;;;;;5004680;28;20050;-70
2023/09/17 12:18:50;;;;;;;18.65;10.43;;;19.00;99.90;;;;;;5026935;28;20060;-69
2023/09/17 12:21:16;;;;;;;16.60;9.20;;;18.90;99.90;;;;;;5017596;28;20069;-69
2023/09/17 12:23:54;;;;;;;14.55;8.48;;;19.00;99.90;;;;;;5024190;28;20147;-70
2023/09/17 12:26:25;;;;;;;17.02;9.75;;;19.00;99.90;;;;;;5025981;28;20037;-70
2023/09/17 12:28:50;;;;;;;16.65;9.15;;;19.10;99.90;;;;;;5022665;28;20120;-70